Time;durP1;ratioP1;P1;durP2;ratioP2;P2;SDS_P1;SDS_P2;PMS_P1;PMS_P2;Temp;Humidity;BMP_temperature;BMP_pressure;BME280_temperature;BME280_humidity;BME280_pressure;Samples;Min_cycle;Max_cycle;Signal;HPM_P1;HPM_P2
2023/11/22 00:00:54;;;;;;;;;;;10.20;70.90;;;5.43;100.00;95625.56;5009564;28;20487;-56
2023/11/22 00:03:28;;;;;;;;;;;10.20;70.20;;;5.45;100.00;95630.63;5006212;28;19963;-58
2023/11/22 00:06:09;;;;;;;;;;;10.20;70.30;;;5.43;100.00;95632.69;4996569;28;20011;-59
2023/11/22 00:08:37;;;;;;;;;;;10.20;70.30;;;5.41;100.00;95630.28;5010036;28;19909;-56
2023/11/22 00:11:14;;;;;;;;;;;10.20;70.30;;;5.42;100.00;95631.91;5005309;28;19909;-59
2023/11/22 00:13:46;;;;;;;;;;;10.20;70.30;;;5.41;100.00;95632.91;5003967;28;19913;-58
2023/11/22 00:16:15;;;;;;;;;;;10.20;70.30;;;5.41;100.00;95632.91;5006328;28;19913;-59
2023/11/22 00:18:48;;;;;;;;;;;10.20;70.30;;;5.41;100.00;95638.19;4996702;28;19963;-57
2023/11/22 00:21:17;;;;;;;;;;;10.30;70.40;;;5.41;100.00;95640.84;4993362;28;19919;-58
2023/11/22 00:24:29;;;;;;;;;;;10.20;70.30;;;5.42;100.00;95637.19;5000435;28;19913;-59
2023/11/22 00:26:55;;;;;;;;;;;10.20;70.30;;;5.44;100.00;95634.28;5010459;28;19909;-59
2023/11/22 00:29:27;;;;;;;;;;;10.30;70.30;;;5.43;100.00;95640.63;4994806;28;19940;-57
2023/11/22 00:31:52;;;;;;;;;;;10.20;70.20;;;5.41;100.00;95635.56;5035491;23;19929;-57
2023/11/22 00:34:18;;;;;;;;;;;10.20;70.20;;;5.40;100.00;95638.44;5000289;28;20363;-58
2023/11/22 00:36:44;;;;;;;;;;;10.30;70.30;;;5.41;100.00;95627.63;4997847;28;20303;-54
2023/11/22 00:39:12;;;;;;;;;;;10.30;70.30;;;5.39;100.00;95637.66;4995795;28;19909;-52
2023/11/22 00:41:39;;;;;;;;;;;10.30;70.30;;;5.38;100.00;95646.59;5001158;28;19944;-52
2023/11/22 00:44:05;;;;;;;;;;;10.30;70.30;;;5.39;100.00;95642.09;4987982;28;19996;-55
2023/11/22 00:46:34;;;;;;;;;;;10.30;70.30;;;5.40;100.00;95649.00;4983073;28;19917;-53
2023/11/22 00:49:00;;;;;;;;;;;10.20;70.20;;;5.40;100.00;95646.38;4988608;28;20844;-52
2023/11/22 00:51:26;;;;;;;;;;;10.20;70.30;;;5.38;100.00;95651.88;4990995;28;20000;-58
2023/11/22 00:53:52;;;;;;;;;;;10.20;70.30;;;5.36;100.00;95653.13;4990326;28;20275;-59
2023/11/22 00:56:18;;;;;;;;;;;10.20;70.20;;;5.34;100.00;95648.88;4986409;28;19910;-54
2023/11/22 00:58:44;;;;;;;;;;;10.20;70.20;;;5.37;100.00;95652.91;4993334;28;19924;-56
2023/11/22 01:01:11;;;;;;;;;;;10.20;70.20;;;5.38;100.00;95654.50;4986267;28;20296;-57
2023/11/22 01:03:37;;;;;;;;;;;10.20;70.30;;;5.38;100.00;95662.44;4984479;28;19956;-56
2023/11/22 01:06:03;;;;;;;;;;;10.20;70.30;;;5.40;100.00;95664.84;4994287;28;19914;-57
2023/11/22 01:08:29;;;;;;;;;;;10.20;70.30;;;5.39;100.00;95657.94;4989867;28;19944;-55
2023/11/22 01:10:55;;;;;;;;;;;10.20;70.30;;;5.38;100.00;95669.56;4986263;28;20011;-54
2023/11/22 01:13:22;;;;;;;;;;;10.20;70.30;;;5.37;100.00;95666.13;4994055;28;20337;-51
2023/11/22 01:15:48;;;;;;;;;;;10.20;70.30;;;5.38;100.00;95661.63;4989337;28;20428;-51
2023/11/22 01:18:13;;;;;;;;;;;10.20;70.30;;;5.41;100.00;95664.63;4988159;28;19992;-53
2023/11/22 01:20:39;;;;;;;;;;;10.20;70.40;;;5.39;100.00;95666.69;4989096;28;19909;-51
2023/11/22 01:23:05;;;;;;;;;;;10.20;70.40;;;5.40;100.00;95668.31;4986298;28;20347;-50
2023/11/22 01:25:31;;;;;;;;;;;10.20;70.40;;;5.39;100.00;95666.69;4983025;28;19918;-54
2023/11/22 01:27:56;;;;;;;;;;;10.20;70.40;;;5.37;100.00;95673.25;4985691;28;19910;-50
2023/11/22 01:30:22;;;;;;;;;;;10.20;70.30;;;5.32;100.00;95672.06;4989027;28;20279;-53
2023/11/22 01:32:49;;;;;;;;;;;10.20;70.30;;;5.32;100.00;95666.78;4987964;28;20264;-51
2023/11/22 01:35:15;;;;;;;;;;;10.20;71.10;;;5.34;100.00;95669.22;4993314;28;19909;-52
2023/11/22 01:37:42;;;;;;;;;;;10.20;70.30;;;5.34;100.00;95666.56;4990567;28;20383;-55
2023/11/22 01:40:08;;;;;;;;;;;10.20;70.30;;;5.31;100.00;95670.47;4988747;28;19920;-55
2023/11/22 01:42:36;;;;;;;;;;;10.20;70.30;;;5.34;100.00;95664.72;4990915;28;19913;-53
2023/11/22 01:45:04;;;;;;;;;;;10.20;70.40;;;5.37;100.00;95670.59;4988386;28;19921;-54
2023/11/22 01:47:30;;;;;;;;;;;10.20;70.30;;;5.38;100.00;95667.72;4980252;28;19913;-51
2023/11/22 01:49:57;;;;;;;;;;;10.20;70.40;;;5.37;100.00;95673.25;4982931;28;20380;-52
2023/11/22 01:52:23;;;;;;;;;;;10.20;70.30;;;5.37;100.00;95673.25;4981274;28;19917;-54
2023/11/22 01:54:49;;;;;;;;;;;10.30;70.40;;;5.38;100.00;95677.47;4983389;28;20500;-53
2023/11/22 01:57:15;;;;;;;;;;;10.20;70.30;;;5.34;100.00;95670.00;4989240;28;19909;-53
2023/11/22 01:59:43;;;;;;;;;;;10.20;70.30;;;5.36;100.00;95677.72;4993947;28;19913;-54
2023/11/22 02:02:09;;;;;;;;;;;10.20;70.30;;;5.38;100.00;95674.84;4967843;28;20011;-52
2023/11/22 02:04:35;;;;;;;;;;;10.20;70.30;;;5.38;100.00;95677.47;4986490;28;19909;-51
2023/11/22 02:07:00;;;;;;;;;;;10.20;70.30;;;5.38;100.00;95677.47;4992863;28;20625;-52
2023/11/22 02:09:26;;;;;;;;;;;10.30;70.40;;;5.41;100.00;95687.59;4993991;28;19944;-50
2023/11/22 02:11:52;;;;;;;;;;;10.20;70.30;;;5.38;100.00;95685.41;4982022;28;19958;-51
2023/11/22 02:14:18;;;;;;;;;;;10.30;70.40;;;5.39;100.00;95682.56;4993105;28;19909;-58
2023/11/22 02:16:45;;;;;;;;;;;10.30;70.40;;;5.42;100.00;95674.16;4983864;28;19988;-56
2023/11/22 02:19:16;;;;;;;;;;;10.30;70.30;;;5.42;100.00;95682.09;4993394;28;20303;-57
2023/11/22 02:21:42;;;;;;;;;;;10.30;70.40;;;5.44;100.00;95681.84;4974454;28;19940;-51
2023/11/22 02:24:09;;;;;;;;;;;10.30;70.40;;;5.43;100.00;95681.06;4977674;28;19913;-55
2023/11/22 02:26:36;;;;;;;;;;;10.30;70.30;;;5.43;100.00;95688.19;4989592;28;20478;-56
2023/11/22 02:29:06;;;;;;;;;;;10.30;70.30;;;5.42;100.00;95691.84;4987903;28;20012;-56
2023/11/22 02:31:33;;;;;;;;;;;10.30;70.30;;;5.43;100.00;95690.81;4985349;28;19937;-53
2023/11/22 02:33:59;;;;;;;;;;;10.30;70.30;;;5.42;100.00;95691.84;4986963;28;19925;-56
2023/11/22 02:36:26;;;;;;;;;;;10.30;70.30;;;5.40;100.00;95696.56;4987522;28;19916;-58
2023/11/22 02:38:52;;;;;;;;;;;10.30;70.30;;;5.40;100.00;95692.06;4984412;28;19937;-53
2023/11/22 02:41:18;;;;;;;;;;;10.30;70.40;;;5.39;100.00;95693.13;4977822;28;20384;-52
2023/11/22 02:43:45;;;;;;;;;;;10.30;70.30;;;5.43;100.00;95704.03;4979467;28;20004;-55
2023/11/22 02:46:12;;;;;;;;;;;10.30;70.30;;;5.39;100.00;95698.41;4977246;28;20008;-53
2023/11/22 02:48:37;;;;;;;;;;;10.30;70.30;;;5.39;100.00;95698.41;4982347;28;20358;-53
2023/11/22 02:51:06;;;;;;;;;;;10.30;70.40;;;5.41;100.00;95701.59;4993049;28;19944;-55
2023/11/22 02:53:32;;;;;;;;;;;10.20;70.30;;;5.42;100.00;95708.50;4985005;28;19921;-56
2023/11/22 02:56:01;;;;;;;;;;;10.20;70.30;;;5.44;100.00;95708.28;4986995;28;19910;-56
2023/11/22 02:58:30;;;;;;;;;;;10.20;70.40;;;5.44;100.00;95705.63;4984342;28;19910;-50
2023/11/22 03:00:57;;;;;;;;;;;10.20;70.30;;;5.44;100.00;95706.44;4983458;28;19914;-52
2023/11/22 03:03:27;;;;;;;;;;;10.30;70.40;;;5.42;100.00;95710.31;4979857;28;20000;-54
2023/11/22 03:05:53;;;;;;;;;;;10.20;70.30;;;5.43;100.00;95704.84;4980873;28;20359;-49
2023/11/22 03:08:19;;;;;;;;;;;10.20;70.40;;;5.41;100.00;95709.53;4985830;28;20016;-49
2023/11/22 03:10:45;;;;;;;;;;;10.20;70.40;;;5.39;100.00;95706.34;4977488;28;20391;-50
2023/11/22 03:13:10;;;;;;;;;;;10.20;70.40;;;5.40;100.00;95705.28;4983728;28;19913;-52
2023/11/22 03:15:36;;;;;;;;;;;10.20;70.40;;;5.42;100.00;95705.03;4982104;28;19910;-49
2023/11/22 03:18:03;;;;;;;;;;;10.10;70.40;;;5.32;100.00;95698.50;4979673;28;19910;-54
2023/11/22 03:20:30;;;;;;;;;;;10.10;70.50;;;5.33;100.00;95704.59;4979166;28;19997;-56
2023/11/22 03:22:56;;;;;;;;;;;10.10;70.40;;;5.31;100.00;95701.38;4982662;28;19920;-54
2023/11/22 03:25:23;;;;;;;;;;;10.10;70.40;;;5.30;100.00;95711.13;4991131;28;20000;-54
2023/11/22 03:27:49;;;;;;;;;;;10.00;70.40;;;5.27;100.00;95706.31;4983232;28;20383;-49
2023/11/22 03:30:15;;;;;;;;;;;10.00;70.50;;;5.28;100.00;95707.91;4989727;28;19909;-51
2023/11/22 03:32:44;;;;;;;;;;;10.00;70.50;;;5.25;100.00;95707.56;4987420;28;20427;-55
2023/11/22 03:35:10;;;;;;;;;;;10.00;70.50;;;5.23;100.00;95707.81;4984891;28;19941;-54
2023/11/22 03:37:37;;;;;;;;;;;9.90;70.50;;;5.25;100.00;95716.28;4988987;28;19916;-50
2023/11/22 03:40:03;;;;;;;;;;;10.00;70.60;;;5.23;100.00;95718.38;4992518;28;20438;-53
2023/11/22 03:42:29;;;;;;;;;;;9.90;70.60;;;5.23;100.00;95721.00;4989484;28;19979;-52
2023/11/22 03:44:55;;;;;;;;;;;9.90;70.70;;;5.21;100.00;95719.63;4982754;28;20364;-50
2023/11/22 03:47:21;;;;;;;;;;;9.90;70.70;;;5.17;100.00;95726.38;4988324;28;19914;-50
2023/11/22 03:49:47;;;;;;;;;;;9.90;70.70;;;5.18;100.00;95720.88;4983051;28;20000;-54
2023/11/22 03:52:16;;;;;;;;;;;9.90;70.70;;;5.19;100.00;95722.47;4985361;28;19910;-49
2023/11/22 03:54:42;;;;;;;;;;;9.90;70.70;;;5.20;100.00;95728.56;4979059;28;19936;-51
2023/11/22 03:57:08;;;;;;;;;;;9.80;70.70;;;5.21;100.00;95727.53;4990749;28;19910;-49
2023/11/22 03:59:35;;;;;;;;;;;9.90;70.80;;;5.21;100.00;95723.06;4983840;28;19910;-52
2023/11/22 04:02:01;;;;;;;;;;;9.90;70.80;;;5.19;100.00;95725.13;4979807;28;20859;-52
2023/11/22 04:04:27;;;;;;;;;;;9.90;70.80;;;5.19;100.00;95725.13;4981743;28;19917;-57
2023/11/22 04:06:52;;;;;;;;;;;9.90;70.70;;;5.17;100.00;95729.00;4979523;28;19910;-50
2023/11/22 04:09:19;;;;;;;;;;;9.90;70.70;;;5.16;100.00;95737.97;4980695;28;19909;-54
2023/11/22 04:11:47;;;;;;;;;;;9.90;70.70;;;5.16;100.00;95737.97;4984655;28;20230;-52
2023/11/22 04:14:13;;;;;;;;;;;9.90;70.60;;;5.17;100.00;95750.97;4984998;28;20368;-56
2023/11/22 04:16:39;;;;;;;;;;;9.90;70.70;;;5.17;100.00;95752.78;4991860;28;19981;-53
2023/11/22 04:19:04;;;;;;;;;;;9.90;70.70;;;5.18;100.00;95757.06;4989301;28;19916;-50
2023/11/22 04:21:30;;;;;;;;;;;9.90;70.70;;;5.16;100.00;95759.91;4980955;28;19917;-51
2023/11/22 04:23:56;;;;;;;;;;;9.90;70.70;;;5.14;100.00;95754.06;4983262;28;20368;-53
2023/11/22 04:26:24;;;;;;;;;;;9.90;70.80;;;5.11;100.00;95759.78;4982612;28;19909;-52
2023/11/22 04:28:50;;;;;;;;;;;9.90;70.80;;;5.12;100.00;95760.59;4965988;28;19909;-51
2023/11/22 04:31:16;;;;;;;;;;;9.90;70.70;;;5.15;100.00;95765.41;4980946;28;19916;-50
2023/11/22 04:33:42;;;;;;;;;;;9.90;71.50;;;5.15;100.00;95768.88;4981786;28;19940;-50
2023/11/22 04:36:08;;;;;;;;;;;9.90;70.80;;;5.16;100.00;95772.31;4984127;28;19909;-50
2023/11/22 04:38:34;;;;;;;;;;;9.90;70.80;;;5.12;100.00;95779.88;4989880;28;20031;-50
2023/11/22 04:41:00;;;;;;;;;;;9.90;70.90;;;5.09;100.00;95773.19;4986790;28;19949;-49
2023/11/22 04:43:26;;;;;;;;;;;9.80;70.80;;;5.11;100.00;95773.00;4985094;28;19999;-49
2023/11/22 04:45:52;;;;;;;;;;;9.90;70.90;;;5.10;100.00;95777.44;4987603;28;20435;-49
2023/11/22 04:48:18;;;;;;;;;;;9.80;70.80;;;5.15;100.00;95775.97;4982421;28;19988;-50
2023/11/22 04:50:43;;;;;;;;;;;9.80;70.80;;;5.15;100.00;95774.16;4983784;28;21376;-50
2023/11/22 04:53:11;;;;;;;;;;;9.80;70.90;;;5.16;100.00;95780.22;4973468;28;20369;-49
2023/11/22 04:55:37;;;;;;;;;;;9.80;70.80;;;5.07;100.00;95785.00;4975956;28;19932;-50
2023/11/22 04:58:03;;;;;;;;;;;9.90;70.90;;;5.06;100.00;95778.94;4986241;28;20380;-54
2023/11/22 05:00:29;;;;;;;;;;;9.80;70.80;;;5.08;100.00;95782.16;4976037;28;19909;-55
2023/11/22 05:02:54;;;;;;;;;;;9.80;70.80;;;5.06;100.00;95788.69;4980630;28;20060;-52
2023/11/22 05:05:21;;;;;;;;;;;9.80;70.90;;;5.07;100.00;95777.91;4985511;28;19987;-55
2023/11/22 05:07:49;;;;;;;;;;;9.80;71.00;;;5.09;100.00;95782.97;4985343;28;20027;-52
2023/11/22 05:10:17;;;;;;;;;;;9.70;70.90;;;5.07;100.00;95800.84;4982563;28;20304;-55
2023/11/22 05:12:43;;;;;;;;;;;9.80;71.00;;;5.12;100.00;95805.47;4980460;28;19959;-56
2023/11/22 05:15:09;;;;;;;;;;;9.80;71.00;;;5.06;100.00;95807.19;4985510;28;20004;-51
2023/11/22 05:17:35;;;;;;;;;;;9.80;71.10;;;5.02;100.00;95806.03;4979128;28;19963;-53
2023/11/22 05:20:02;;;;;;;;;;;9.70;71.00;;;5.00;100.00;95811.50;4973974;28;20350;-55
2023/11/22 05:22:27;;;;;;;;;;;9.70;71.00;;;4.97;100.00;95809.31;4986134;28;20383;-50
2023/11/22 05:24:53;;;;;;;;;;;9.70;71.00;;;4.91;100.00;95812.84;4979368;28;19960;-51
2023/11/22 05:27:19;;;;;;;;;;;9.70;71.00;;;4.80;100.00;95818.91;4992095;28;20319;-52
2023/11/22 05:29:45;;;;;;;;;;;9.70;71.00;;;4.88;100.00;95819.38;4977872;28;20500;-53
2023/11/22 05:32:11;;;;;;;;;;;9.70;71.10;;;4.91;100.00;95835.81;4987013;28;19922;-53
2023/11/22 05:34:39;;;;;;;;;;;9.70;71.10;;;4.85;100.00;95827.75;4990862;28;19913;-54
2023/11/22 05:37:05;;;;;;;;;;;9.60;71.10;;;4.81;100.00;95839.78;4993026;28;20394;-53
2023/11/22 05:39:31;;;;;;;;;;;9.70;71.10;;;4.81;100.00;95839.78;4986305;28;19918;-53
2023/11/22 05:41:57;;;;;;;;;;;9.70;71.10;;;4.86;100.00;95839.94;4985637;28;19921;-52
2023/11/22 05:44:23;;;;;;;;;;;9.60;71.10;;;4.93;100.00;95837.19;4993008;28;19910;-56
2023/11/22 05:46:48;;;;;;;;;;;9.60;71.10;;;4.92;100.00;95851.44;4981040;28;19959;-56
2023/11/22 05:49:14;;;;;;;;;;;9.60;71.10;;;4.93;100.00;95852.25;4983438;28;20276;-52
2023/11/22 05:51:40;;;;;;;;;;;9.70;71.20;;;4.91;100.00;95851.66;4983615;28;19953;-52
2023/11/22 05:54:07;;;;;;;;;;;9.60;71.10;;;4.85;100.00;95851.50;4980480;28;19910;-56
2023/11/22 05:56:32;;;;;;;;;;;9.60;71.10;;;4.88;100.00;95850.25;4989953;28;19909;-58
2023/11/22 05:58:59;;;;;;;;;;;9.60;71.10;;;4.86;100.00;95855.75;4982427;28;20300;-50
2023/11/22 06:01:26;;;;;;;;;;;9.60;71.10;;;4.86;100.00;95865.53;4978942;28;20369;-50
2023/11/22 06:03:53;;;;;;;;;;;9.70;71.20;;;4.87;100.00;95864.47;4983339;28;19944;-51
2023/11/22 06:06:21;;;;;;;;;;;9.70;71.20;;;4.90;100.00;95865.88;4984358;28;19917;-51
2023/11/22 06:08:47;;;;;;;;;;;9.70;71.20;;;4.85;100.00;95862.06;4981533;28;19910;-53
2023/11/22 06:11:15;;;;;;;;;;;9.70;71.20;;;4.94;100.00;95859.13;4986623;28;20340;-51
2023/11/22 06:13:46;;;;;;;;;;;9.70;71.20;;;4.96;100.00;95854.44;4980056;28;19913;-54
2023/11/22 06:16:13;;;;;;;;;;;9.70;71.20;;;4.98;100.00;95855.00;4978857;28;19913;-51
2023/11/22 06:18:40;;;;;;;;;;;9.70;71.20;;;4.96;100.00;95857.88;4983813;28;19909;-58
2023/11/22 06:21:10;;;;;;;;;;;9.70;71.10;;;4.97;100.00;95856.84;4982175;28;19914;-52
2023/11/22 06:23:36;;;;;;;;;;;9.70;71.10;;;4.99;100.00;95860.06;4990466;28;19909;-51
2023/11/22 06:26:02;;;;;;;;;;;9.70;71.10;;;4.98;100.00;95860.28;4989032;28;19913;-51
2023/11/22 06:28:31;;;;;;;;;;;9.70;71.00;;;4.96;100.00;95868.44;4989432;28;19910;-51
2023/11/22 06:30:57;;;;;;;;;;;9.70;71.00;;;4.96;100.00;95862.34;4972807;28;20001;-50
2023/11/22 06:33:23;;;;;;;;;;;9.70;71.00;;;4.96;100.00;95867.63;4981659;28;20404;-50
2023/11/22 06:35:49;;;;;;;;;;;9.70;71.00;;;4.91;100.00;95872.75;4987927;28;20288;-54
2023/11/22 06:38:14;;;;;;;;;;;9.70;71.00;;;4.91;100.00;95864.84;4980676;28;19976;-49
2023/11/22 06:40:40;;;;;;;;;;;9.60;71.00;;;4.88;100.00;95874.00;4982593;28;19913;-52
2023/11/22 06:43:06;;;;;;;;;;;9.70;71.00;;;4.88;100.00;95877.44;4983978;28;19913;-50
2023/11/22 06:45:32;;;;;;;;;;;9.60;71.00;;;4.84;100.00;95880.75;4981617;28;19910;-54
2023/11/22 06:47:58;;;;;;;;;;;9.60;71.00;;;4.79;100.00;95899.09;4985818;28;19916;-50
2023/11/22 06:50:24;;;;;;;;;;;9.60;71.00;;;4.76;100.00;95895.03;4988737;28;19964;-50
2023/11/22 06:52:52;;;;;;;;;;;9.60;71.00;;;4.73;100.00;95898.16;4989374;28;19910;-52
2023/11/22 06:55:18;;;;;;;;;;;9.60;71.00;;;4.66;100.00;95896.59;4990449;28;19913;-53
2023/11/22 06:57:44;;;;;;;;;;;9.50;71.00;;;4.59;100.00;95902.75;4989343;28;19918;-51
2023/11/22 07:00:12;;;;;;;;;;;9.50;70.90;;;4.57;100.00;95917.19;4973461;28;20008;-55
2023/11/22 07:02:38;;;;;;;;;;;9.40;70.90;;;4.51;100.00;95921.53;4973257;28;20337;-52
2023/11/22 07:05:10;;;;;;;;;;;9.40;70.90;;;4.47;100.00;95925.59;4981907;28;20020;-57
2023/11/22 07:07:37;;;;;;;;;;;9.40;70.90;;;4.38;100.00;95934.81;4980116;28;19909;-50
2023/11/22 07:10:07;;;;;;;;;;;9.30;70.80;;;4.31;100.00;95937.50;4987196;28;19910;-54
2023/11/22 07:12:34;;;;;;;;;;;9.20;70.70;;;4.33;100.00;95950.50;4972139;28;20357;-55
2023/11/22 07:15:00;;;;;;;;;;;9.20;70.80;;;4.33;100.00;95951.28;4976029;28;19913;-56
2023/11/22 07:17:28;;;;;;;;;;;9.10;70.70;;;4.24;100.00;95949.94;4977260;28;20004;-54
2023/11/22 07:19:55;;;;;;;;;;;9.10;70.80;;;4.25;100.00;95956.81;4984693;28;20000;-58
2023/11/22 07:22:22;;;;;;;;;;;9.10;70.90;;;4.22;100.00;95964.38;4985317;28;19917;-56
2023/11/22 07:24:54;;;;;;;;;;;9.10;70.90;;;4.15;100.00;95967.06;4998153;23;19956;-51
2023/11/22 07:27:20;;;;;;;;;;;9.10;70.90;;;4.20;100.00;95976.94;5002059;28;19951;-55
2023/11/22 07:29:47;;;;;;;;;;;9.00;70.90;;;4.13;100.00;95975.16;4994398;28;20331;-53
2023/11/22 07:32:13;;;;;;;;;;;9.00;70.90;;;4.12;100.00;95975.41;5004071;28;19916;-51
2023/11/22 07:34:40;;;;;;;;;;;9.00;71.00;;;4.10;100.00;95993.25;5000795;28;19916;-53
2023/11/22 07:37:08;;;;;;;;;;;9.00;70.90;;;4.06;100.00;95990.22;5008940;28;19909;-52
2023/11/22 07:39:38;;;;;;;;;;;9.00;70.90;;;4.06;100.00;95994.69;5009579;28;19916;-51
2023/11/22 07:42:07;;;;;;;;;;;8.90;70.80;;;3.87;100.00;95996.44;5011574;28;19920;-50
2023/11/22 07:44:35;;;;;;;;;;;8.90;70.80;;;3.84;100.00;96005.56;5009536;28;20275;-51
2023/11/22 07:47:02;;;;;;;;;;;8.80;70.60;;;3.72;100.00;96010.69;5011268;28;19913;-51
2023/11/22 07:49:29;;;;;;;;;;;8.80;70.60;;;3.68;100.00;96016.63;5011176;28;19936;-54
2023/11/22 07:51:56;;;;;;;;;;;8.80;70.50;;;3.65;100.00;96015.22;5012117;28;20011;-51
2023/11/22 07:54:22;;;;;;;;;;;8.70;70.40;;;3.67;100.00;96007.09;5012163;28;19916;-50
2023/11/22 07:56:54;;;;;;;;;;;8.70;70.50;;;3.58;100.00;96013.63;5011121;28;19913;-51
2023/11/22 07:59:20;;;;;;;;;;;8.70;70.50;;;3.48;100.00;96012.25;5011922;28;19909;-49
2023/11/22 08:01:49;;;;;;;;;;;8.60;70.40;;;3.45;100.00;96015.31;5010958;28;20268;-49
2023/11/22 08:04:18;;;;;;;;;;;8.60;70.40;;;3.40;100.00;96009.03;5011993;28;19913;-51
2023/11/22 08:06:45;;;;;;;;;;;8.60;70.40;;;3.39;100.00;96026.66;5011070;28;20015;-51
2023/11/22 08:09:11;;;;;;;;;;;8.50;70.40;;;3.40;100.00;96035.38;5011931;28;19954;-50
2023/11/22 08:11:37;;;;;;;;;;;8.50;70.50;;;3.37;100.00;96047.13;5012022;28;19909;-52
2023/11/22 08:14:03;;;;;;;;;;;8.50;70.50;;;3.29;100.00;96049.16;5010632;28;19977;-53
2023/11/22 08:16:29;;;;;;;;;;;8.40;70.40;;;3.27;100.00;96052.03;5011864;28;19955;-51
2023/11/22 08:18:56;;;;;;;;;;;8.40;70.50;;;3.23;100.00;96059.53;5010971;28;20088;-50
2023/11/22 08:21:23;;;;;;;;;;;8.40;70.50;;;3.21;100.00;96058.13;5011795;28;19913;-50
2023/11/22 08:23:49;;;;;;;;;;;8.30;70.50;;;3.20;100.00;96069.69;5011826;28;19909;-52
2023/11/22 08:26:16;;;;;;;;;;;8.30;70.50;;;3.04;100.00;96073.56;5010665;28;19924;-51
2023/11/22 08:28:42;;;;;;;;;;;8.30;70.60;;;3.03;100.00;96076.38;5011847;28;19909;-53
2023/11/22 08:31:09;;;;;;;;;;;8.20;70.40;;;3.01;100.00;96076.59;5014520;28;19955;-53
2023/11/22 08:33:39;;;;;;;;;;;8.20;70.40;;;3.05;100.00;96077.00;4989156;28;19921;-57
2023/11/22 08:36:09;;;;;;;;;;;8.20;70.40;;;2.99;100.00;96081.25;5011956;28;19920;-56
2023/11/22 08:38:36;;;;;;;;;;;8.20;70.40;;;2.99;100.00;96079.41;5010752;28;20484;-57
2023/11/22 08:41:06;;;;;;;;;;;8.20;70.40;;;2.97;100.00;96086.69;4994387;28;20347;-57
2023/11/22 08:43:33;;;;;;;;;;;8.10;70.30;;;2.90;100.00;96088.53;4991119;28;19932;-57
2023/11/22 08:46:00;;;;;;;;;;;8.10;70.30;;;2.86;100.00;96089.97;4994253;28;19913;-57
2023/11/22 08:48:26;;;;;;;;;;;8.10;70.30;;;2.73;100.00;96082.09;5012174;28;19917;-54
2023/11/22 08:50:55;;;;;;;;;;;8.10;70.30;;;2.77;100.00;96078.03;5010853;28;19932;-57
2023/11/22 08:53:21;;;;;;;;;;;8.10;70.20;;;2.79;100.00;96081.28;5011808;28;19909;-56
2023/11/22 08:55:47;;;;;;;;;;;8.10;70.20;;;2.83;100.00;96094.81;5010692;28;20307;-57
2023/11/22 08:58:13;;;;;;;;;;;8.10;70.20;;;2.85;100.00;96101.50;5012469;28;20003;-51
2023/11/22 09:00:41;;;;;;;;;;;8.10;70.20;;;2.85;100.00;96100.66;5015035;28;19931;-54
2023/11/22 09:03:12;;;;;;;;;;;8.10;70.20;;;2.86;100.00;96112.84;5015029;28;20386;-57
2023/11/22 09:05:42;;;;;;;;;;;8.10;70.20;;;2.91;100.00;96105.94;5015033;28;19948;-55
2023/11/22 09:08:14;;;;;;;;;;;8.10;70.20;;;2.90;100.00;96106.94;5014311;28;19954;-58
2023/11/22 09:10:41;;;;;;;;;;;8.10;70.20;;;2.83;100.00;96110.63;4977676;28;19981;-56
2023/11/22 09:13:08;;;;;;;;;;;8.10;70.20;;;2.88;100.00;96118.69;5014721;28;20256;-58
2023/11/22 09:15:36;;;;;;;;;;;8.10;70.20;;;2.93;100.00;96124.16;5015406;28;20394;-57
2023/11/22 09:18:01;;;;;;;;;;;8.10;70.20;;;2.97;100.00;96128.00;5015817;28;20027;-58
2023/11/22 09:20:27;;;;;;;;;;;8.20;70.30;;;2.96;100.00;96135.09;5014968;28;19996;-58
2023/11/22 09:22:54;;;;;;;;;;;8.20;70.30;;;2.95;100.00;96138.75;5015300;28;20031;-57
2023/11/22 09:25:24;;;;;;;;;;;8.20;70.20;;;2.95;100.00;96145.84;4996418;28;19956;-57
2023/11/22 09:27:58;;;;;;;;;;;8.20;70.20;;;2.93;100.00;96145.22;4996017;28;19962;-57
2023/11/22 09:30:38;;;;;;;;;;;8.20;70.10;;;2.94;100.00;96145.00;4994211;28;19919;-58
2023/11/22 09:33:07;;;;;;;;;;;8.20;70.10;;;2.91;100.00;96141.97;5010119;28;20390;-56
2023/11/22 09:35:35;;;;;;;;;;;8.20;70.00;;;2.87;100.00;96136.31;5014239;28;19928;-57
2023/11/22 09:38:12;;;;;;;;;;;8.20;70.00;;;2.90;100.00;96143.00;5013093;28;19963;-58
2023/11/22 09:40:43;;;;;;;;;;;8.20;70.70;;;2.93;100.00;96138.13;5013822;28;19909;-57
2023/11/22 09:43:10;;;;;;;;;;;8.20;70.00;;;2.96;100.00;96137.72;4971554;28;19918;-58
2023/11/22 09:45:38;;;;;;;;;;;8.20;69.90;;;2.99;100.00;96120.72;4994651;28;19909;-57
2023/11/22 09:48:20;;;;;;;;;;;8.30;69.90;;;2.99;100.00;96121.53;5008039;28;19916;-58
2023/11/22 09:51:26;;;;;;;;;;;8.40;70.00;;;3.01;100.00;96118.72;4996683;28;19959;-59
2023/11/22 09:53:58;;;;;;;;;;;8.50;69.80;;;3.08;100.00;96116.88;4994073;28;19917;-59
2023/11/22 09:56:25;;;;;;;;;;;8.70;69.80;;;3.25;100.00;96109.34;5000418;28;19909;-57
2023/11/22 09:58:57;;;;;;;;;;;8.80;69.60;;;3.35;100.00;96114.97;4993283;28;19916;-59
2023/11/22 10:01:24;;;;;;;;;;;8.90;69.50;;;3.45;100.00;96112.75;4988054;28;19959;-58
2023/11/22 10:03:50;;;;;;;;;;;9.10;69.40;;;3.62;100.00;96115.75;5013950;28;19909;-56
2023/11/22 10:06:17;;;;;;;;;;;9.40;69.20;;;3.81;100.00;96108.78;4996241;28;19909;-54
2023/11/22 10:08:47;;;;;;;;;;;9.70;69.00;;;4.07;100.00;96107.84;5018458;28;19917;-58
2023/11/22 10:11:21;;;;;;;;;;;10.00;68.80;;;4.23;100.00;96106.56;5012434;28;19995;-56
2023/11/22 10:13:50;;;;;;;;;;;10.30;68.40;;;4.32;100.00;96112.38;5012118;28;20074;-57
2023/11/22 10:16:19;;;;;;;;;;;10.50;67.80;;;4.35;100.00;96122.50;5009459;28;20307;-58
2023/11/22 10:18:48;;;;;;;;;;;10.60;67.50;;;4.41;100.00;96129.56;5013122;28;19924;-58
2023/11/22 10:21:30;;;;;;;;;;;10.60;67.20;;;4.34;100.00;96131.44;5018507;28;19921;-58
2023/11/22 10:24:00;;;;;;;;;;;10.50;67.00;;;4.29;100.00;96141.81;5006621;28;20466;-59
2023/11/22 10:26:28;;;;;;;;;;;10.40;66.90;;;4.16;100.00;96146.13;5004906;28;19918;-56
2023/11/22 10:28:55;;;;;;;;;;;10.30;67.00;;;4.28;100.00;96148.13;5008066;28;20436;-59
2023/11/22 10:31:23;;;;;;;;;;;10.20;67.20;;;4.21;100.00;96150.78;4997111;28;20295;-58
2023/11/22 10:33:49;;;;;;;;;;;10.10;67.20;;;4.00;100.00;96149.25;5010669;28;19913;-59
2023/11/22 10:36:17;;;;;;;;;;;10.00;67.20;;;3.88;100.00;96164.09;4992143;28;20526;-59
2023/11/22 10:38:48;;;;;;;;;;;9.90;67.20;;;3.84;100.00;96155.81;5012621;28;19908;-53
2023/11/22 10:41:14;;;;;;;;;;;9.80;67.20;;;3.96;100.00;96155.16;4982064;28;19912;-56
2023/11/22 10:43:44;;;;;;;;;;;9.70;67.20;;;4.01;100.00;96158.81;5009086;28;20342;-55
2023/11/22 10:46:13;;;;;;;;;;;9.70;67.30;;;3.77;100.00;96156.84;4995342;28;20299;-59
2023/11/22 10:48:39;;;;;;;;;;;9.70;67.30;;;3.57;100.00;96160.31;4994381;28;19913;-53
2023/11/22 10:51:06;;;;;;;;;;;9.70;67.30;;;3.54;100.00;96149.38;4993808;28;19909;-59
2023/11/22 10:53:38;;;;;;;;;;;9.60;67.10;;;3.63;100.00;96154.22;5010868;28;19916;-58
2023/11/22 10:56:20;;;;;;;;;;;9.60;67.20;;;3.61;100.00;96160.75;5004864;28;19913;-52
2023/11/22 10:58:57;;;;;;;;;;;9.60;67.20;;;3.61;100.00;96152.84;5009837;28;19913;-58
2023/11/22 11:01:26;;;;;;;;;;;9.50;67.30;;;3.71;100.00;96156.66;5009803;28;20265;-59
2023/11/22 11:04:11;;;;;;;;;;;9.50;67.30;;;3.42;100.00;96150.03;4990552;28;19915;-56
2023/11/22 11:06:39;;;;;;;;;;;9.50;67.40;;;3.65;100.00;96146.94;4993332;28;19913;-58
2023/11/22 11:09:08;;;;;;;;;;;9.50;67.40;;;3.55;100.00;96141.31;5009480;28;19923;-54
2023/11/22 11:11:37;;;;;;;;;;;9.60;67.40;;;3.61;100.00;96152.84;5011514;28;19912;-53
2023/11/22 11:14:05;;;;;;;;;;;9.70;67.20;;;3.71;100.00;96155.84;5010641;28;19909;-59
2023/11/22 11:16:47;;;;;;;;;;;9.70;67.10;;;3.64;100.00;96155.06;5010788;28;19916;-57
2023/11/22 11:19:18;;;;;;;;;;;9.80;67.10;;;3.62;100.00;96159.72;4990379;28;19909;-54
2023/11/22 11:21:44;;;;;;;;;;;9.80;66.90;;;3.60;100.00;96161.75;4976281;28;20273;-56
2023/11/22 11:24:10;;;;;;;;;;;9.90;66.70;;;3.69;100.00;96168.41;5010895;28;19913;-50